Terminal Aerodrome Forecast
Issued by NWS

Home | Current Version | Previous Version | Text Only | Print | Product List | Glossary On
Versions: 1 2 3 4 5 6 7 8 9 10 11 12 13 14 15 16 17 18 19 20 21 22 23 24 25 26
000
FTUS44 KFWD 291459 AAA
TAFFTW
TAF AMD
KFTW 291459Z 2915/3012 17010KT P6SM BKN015 OVC040
     FM291700 17016KT P6SM VCSH SCT025 BKN040
     FM291800 18017KT P6SM VCTS SCT030 BKN050CB
      TEMPO 2918/2922 3SM TSRA BKN030CB
     FM300000 18016KT P6SM SCT150
     FM300900 23009KT P6SM SCT200=

USA.gov is the U.S. government's official web portal to all federal, state and local government web resources and services.